Time;durP1;ratioP1;P1;durP2;ratioP2;P2;SDS_P1;SDS_P2;PMS_P1;PMS_P2;Temp;Humidity;BMP_temperature;BMP_pressure;BME280_temperature;BME280_humidity;BME280_pressure;Samples;Min_cycle;Max_cycle;Signal;HPM_P1;HPM_P2
2023/09/04 00:01:10;;;;;;;1.50;1.00;;;16.30;98.20;;;;;;4954595;28;20474;-84
2023/09/04 00:03:37;;;;;;;1.50;1.00;;;16.30;98.20;;;;;;4976914;28;20483;-84
2023/09/04 00:06:04;;;;;;;1.50;1.00;;;16.20;98.20;;;;;;4957186;28;20787;-83
2023/09/04 00:08:31;;;;;;;1.50;1.00;;;16.20;98.20;;;;;;4979259;28;20470;-83
2023/09/04 00:10:58;;;;;;;1.50;1.00;;;16.20;98.20;;;;;;4956408;28;20573;-84
2023/09/04 00:13:32;;;;;;;1.50;0.90;;;16.20;98.20;;;;;;4978820;28;20530;-84
2023/09/04 00:18:49;;;;;;;1.50;1.00;;;16.20;98.20;;;;;;4951623;28;20475;-83
2023/09/04 00:21:16;;;;;;;1.50;1.10;;;16.20;98.20;;;;;;4960120;28;20501;-84
2023/09/04 00:23:43;;;;;;;1.50;1.00;;;16.20;98.20;;;;;;4975384;28;20497;-84
2023/09/04 00:26:15;;;;;;;1.50;1.10;;;16.20;98.20;;;;;;4958664;28;20811;-84
2023/09/04 00:28:51;;;;;;;1.50;1.00;;;16.20;98.20;;;;;;4977213;28;20462;-84
2023/09/04 00:31:20;;;;;;;1.50;1.00;;;16.20;98.20;;;;;;4950377;28;20596;-85
2023/09/04 00:33:49;;;;;;;1.50;0.90;;;16.20;98.20;;;;;;4963721;28;20529;-83
2023/09/04 00:36:16;;;;;;;1.50;0.97;;;16.20;98.20;;;;;;4960767;28;20478;-84
2023/09/04 00:38:43;;;;;;;1.50;0.90;;;16.20;98.20;;;;;;4976496;28;20561;-84
2023/09/04 00:41:11;;;;;;;1.50;1.00;;;16.20;98.20;;;;;;4959132;28;20516;-85
2023/09/04 00:43:38;;;;;;;1.50;0.90;;;16.20;98.20;;;;;;4977419;28;20486;-85
2023/09/04 00:46:07;;;;;;;1.50;1.00;;;16.20;98.20;;;;;;4956322;28;20535;-84
2023/09/04 00:48:35;;;;;;;1.50;1.20;;;16.20;98.20;;;;;;4978513;28;20498;-84
2023/09/04 00:51:02;;;;;;;1.50;1.00;;;16.20;98.20;;;;;;4958656;28;20487;-83
2023/09/04 00:53:30;;;;;;;1.50;1.00;;;16.10;98.20;;;;;;4985976;28;20493;-83
2023/09/04 00:56:06;;;;;;;1.50;0.90;;;16.10;98.20;;;;;;4973737;28;20490;-83
2023/09/04 00:58:38;;;;;;;1.50;1.00;;;16.10;98.20;;;;;;4997692;28;20461;-84
2023/09/04 01:01:06;;;;;;;1.50;1.00;;;16.10;98.20;;;;;;4972961;28;20478;-83
2023/09/04 01:03:33;;;;;;;1.50;1.00;;;16.10;98.20;;;;;;4999108;28;20788;-83
2023/09/04 01:06:00;;;;;;;1.50;1.00;;;16.10;98.20;;;;;;4979263;28;20468;-83
2023/09/04 01:08:28;;;;;;;1.50;1.00;;;16.00;98.20;;;;;;4997915;28;20563;-83
2023/09/04 01:11:11;;;;;;;1.50;0.90;;;16.00;98.20;;;;;;4976472;28;20573;-83
2023/09/04 01:13:43;;;;;;;1.50;1.00;;;15.90;98.20;;;;;;5000377;28;20461;-82
2023/09/04 01:16:17;;;;;;;1.50;0.90;;;15.90;98.20;;;;;;4980631;28;20490;-83
2023/09/04 01:18:49;;;;;;;1.50;1.00;;;15.90;98.20;;;;;;4999443;28;20802;-83
2023/09/04 01:21:17;;;;;;;1.50;1.00;;;15.90;98.20;;;;;;4982980;28;20524;-83
2023/09/04 01:23:45;;;;;;;1.50;1.00;;;15.90;98.20;;;;;;4995914;28;20490;-82
2023/09/04 01:26:15;;;;;;;1.50;1.00;;;15.90;98.20;;;;;;4977478;28;20526;-83
2023/09/04 01:28:51;;;;;;;1.50;0.90;;;15.90;98.20;;;;;;4999398;28;20690;-83
2023/09/04 01:31:23;;;;;;;1.50;1.10;;;15.90;98.20;;;;;;4982975;28;20556;-83
2023/09/04 01:33:57;;;;;;;1.50;1.00;;;15.90;98.20;;;;;;4994179;28;20493;-83
2023/09/04 01:36:28;;;;;;;1.50;1.00;;;15.90;98.20;;;;;;4980544;28;21027;-83
2023/09/04 01:38:55;;;;;;;1.50;1.00;;;15.90;98.20;;;;;;4998590;28;20473;-83
2023/09/04 01:41:23;;;;;;;1.50;1.00;;;15.90;98.20;;;;;;4984230;28;20476;-83
2023/09/04 01:43:51;;;;;;;1.50;1.00;;;15.90;98.20;;;;;;4996315;28;20565;-83
2023/09/04 01:46:20;;;;;;;1.50;1.03;;;15.90;98.20;;;;;;4985409;28;20521;-84
2023/09/04 01:48:48;;;;;;;1.50;1.00;;;15.90;98.20;;;;;;4999193;28;20991;-83
2023/09/04 01:51:15;;;;;;;1.50;1.00;;;15.90;98.20;;;;;;4979400;28;20488;-83
2023/09/04 01:53:44;;;;;;;1.50;1.00;;;15.90;98.20;;;;;;4995937;28;21022;-83
2023/09/04 01:56:11;;;;;;;1.50;0.97;;;15.90;98.20;;;;;;4980531;28;20568;-84
2023/09/04 01:58:38;;;;;;;1.50;1.00;;;15.90;98.20;;;;;;5001911;28;20557;-83
2023/09/04 02:01:04;;;;;;;1.50;1.00;;;15.90;98.20;;;;;;4978139;28;20493;-82
2023/09/04 02:03:31;;;;;;;1.43;0.90;;;15.90;98.20;;;;;;4999763;28;20577;-83
2023/09/04 02:05:58;;;;;;;1.50;1.10;;;15.90;98.20;;;;;;4975151;28;20472;-83
2023/09/04 02:08:28;;;;;;;1.50;1.00;;;15.90;98.20;;;;;;4982070;28;20467;-83
2023/09/04 02:10:58;;;;;;;1.50;1.00;;;15.80;98.20;;;;;;4957730;28;20526;-82
2023/09/04 02:13:25;;;;;;;1.50;1.00;;;15.90;98.20;;;;;;4978838;28;20479;-82
2023/09/04 02:15:52;;;;;;;1.50;1.00;;;15.80;98.20;;;;;;4964630;28;20466;-82
2023/09/04 02:18:19;;;;;;;1.50;1.00;;;15.80;98.20;;;;;;4980629;28;20571;-82
2023/09/04 02:20:47;;;;;;;1.50;1.00;;;15.80;98.20;;;;;;4969271;28;20546;-82
2023/09/04 02:23:14;;;;;;;1.50;1.00;;;15.80;98.20;;;;;;4953985;28;20493;-82
2023/09/04 02:25:41;;;;;;;1.50;0.90;;;15.80;98.20;;;;;;4966521;28;20494;-82
2023/09/04 02:28:09;;;;;;;1.50;1.00;;;15.70;98.20;;;;;;4991391;28;20972;-83
2023/09/04 02:30:40;;;;;;;1.50;0.90;;;15.70;98.20;;;;;;4984694;28;20511;-82
2023/09/04 02:33:06;;;;;;;1.50;1.00;;;15.60;98.20;;;;;;4987998;28;20489;-83
2023/09/04 02:35:34;;;;;;;1.50;1.00;;;15.60;98.20;;;;;;4984607;28;20549;-82
2023/09/04 02:38:01;;;;;;;1.50;1.00;;;15.60;98.20;;;;;;4985034;28;20503;-83
2023/09/04 02:40:28;;;;;;;1.50;1.00;;;15.60;98.20;;;;;;4984702;28;20486;-82
2023/09/04 02:42:56;;;;;;;1.50;0.97;;;15.60;98.20;;;;;;4989424;28;20788;-82
2023/09/04 02:45:24;;;;;;;1.50;1.00;;;15.60;98.20;;;;;;4980967;28;20573;-82
2023/09/04 02:47:51;;;;;;;1.50;1.00;;;15.60;98.20;;;;;;4990064;28;20504;-83
2023/09/04 02:50:18;;;;;;;1.50;0.90;;;15.50;98.20;;;;;;5002863;23;20616;-80
2023/09/04 02:52:45;;;;;;;1.50;1.00;;;15.50;98.20;;;;;;4959769;28;20714;-82
2023/09/04 02:55:13;;;;;;;1.50;1.00;;;15.50;98.20;;;;;;4973056;28;20466;-81
2023/09/04 02:57:40;;;;;;;1.50;1.00;;;15.50;98.20;;;;;;4976737;28;20588;-82
2023/09/04 03:00:08;;;;;;;1.50;0.97;;;15.50;98.20;;;;;;4972104;28;20490;-82
2023/09/04 03:02:41;;;;;;;1.50;1.00;;;15.50;98.20;;;;;;4977031;28;20481;-82
2023/09/04 03:05:08;;;;;;;1.50;1.00;;;15.50;98.20;;;;;;4963191;28;21140;-82
2023/09/04 03:07:35;;;;;;;1.53;1.10;;;15.50;98.20;;;;;;4975721;28;20485;-82
2023/09/04 03:10:02;;;;;;;1.50;1.00;;;15.50;98.20;;;;;;4956525;28;20478;-81
2023/09/04 03:12:33;;;;;;;1.50;1.00;;;15.50;98.20;;;;;;4973833;28;20477;-82
2023/09/04 03:15:02;;;;;;;1.50;0.93;;;15.50;98.20;;;;;;4962746;28;20458;-82
2023/09/04 03:17:29;;;;;;;1.53;1.10;;;15.50;98.20;;;;;;4971016;28;20496;-82
2023/09/04 03:19:58;;;;;;;1.50;1.00;;;15.40;98.20;;;;;;4961725;28;20501;-80
2023/09/04 03:22:26;;;;;;;1.50;1.00;;;15.40;98.20;;;;;;4971481;28;20484;-82
2023/09/04 03:24:54;;;;;;;1.50;0.97;;;15.40;98.20;;;;;;4975612;28;20609;-82
2023/09/04 03:27:21;;;;;;;1.50;1.00;;;15.40;98.20;;;;;;4977559;28;20498;-80
2023/09/04 03:29:47;;;;;;;1.50;1.00;;;15.40;98.20;;;;;;4975035;28;20644;-82
2023/09/04 03:32:14;;;;;;;1.50;1.00;;;15.30;98.20;;;;;;4975645;28;21038;-81
2023/09/04 03:34:41;;;;;;;1.50;1.00;;;15.30;98.20;;;;;;4968280;28;20462;-82
2023/09/04 03:37:09;;;;;;;1.50;1.07;;;15.30;98.20;;;;;;4958598;28;20497;-82
2023/09/04 03:39:37;;;;;;;1.57;1.00;;;15.30;98.20;;;;;;4948880;28;20474;-81
2023/09/04 03:42:04;;;;;;;1.50;1.00;;;15.20;98.20;;;;;;4939986;28;20667;-82
2023/09/04 03:44:31;;;;;;;1.50;0.93;;;15.20;98.20;;;;;;4947875;28;20501;-80
2023/09/04 03:46:58;;;;;;;1.50;1.00;;;15.20;98.20;;;;;;4959645;28;20483;-82
2023/09/04 03:49:25;;;;;;;1.50;1.00;;;15.20;98.20;;;;;;4973864;28;20553;-81
2023/09/04 03:51:52;;;;;;;1.50;1.00;;;15.20;98.20;;;;;;4959901;28;20927;-81
2023/09/04 03:54:21;;;;;;;1.50;1.10;;;15.10;98.20;;;;;;4950767;28;20498;-80
2023/09/04 03:56:49;;;;;;;1.50;1.00;;;15.10;98.20;;;;;;4944242;28;20493;-80
2023/09/04 03:59:16;;;;;;;1.50;1.00;;;15.10;98.20;;;;;;4954174;28;20499;-81
2023/09/04 04:01:43;;;;;;;1.50;1.00;;;15.10;98.20;;;;;;4942187;28;20534;-82
2023/09/04 04:04:10;;;;;;;1.53;1.00;;;15.10;98.20;;;;;;4951285;28;21065;-81
2023/09/04 04:06:37;;;;;;;1.50;1.00;;;15.10;98.20;;;;;;4954710;28;20499;-82
2023/09/04 04:09:04;;;;;;;1.53;1.00;;;15.10;98.20;;;;;;4978042;28;20473;-82
2023/09/04 04:11:33;;;;;;;1.50;1.07;;;15.10;98.20;;;;;;4962513;28;20492;-80
2023/09/04 04:14:00;;;;;;;1.50;1.00;;;15.00;98.20;;;;;;4978248;28;20454;-82
2023/09/04 04:16:26;;;;;;;1.50;1.00;;;15.00;98.20;;;;;;4961320;28;20482;-83
2023/09/04 04:18:53;;;;;;;1.50;1.00;;;15.00;98.20;;;;;;4958449;28;20462;-80
2023/09/04 04:21:20;;;;;;;1.50;1.00;;;14.90;98.20;;;;;;4943330;28;20492;-80
2023/09/04 04:23:47;;;;;;;1.53;1.00;;;14.90;98.20;;;;;;4986392;28;20462;-82
2023/09/04 04:26:14;;;;;;;1.50;1.00;;;14.90;98.20;;;;;;4960978;28;20934;-81
2023/09/04 04:28:42;;;;;;;1.50;1.00;;;14.90;98.20;;;;;;4957814;28;20653;-82
2023/09/04 04:31:10;;;;;;;1.50;1.00;;;14.90;98.20;;;;;;4930100;28;20489;-82
2023/09/04 04:33:37;;;;;;;1.50;1.00;;;14.80;98.20;;;;;;4954514;28;20483;-82
2023/09/04 04:36:04;;;;;;;1.50;1.00;;;14.80;98.20;;;;;;4943497;28;20558;-80
2023/09/04 04:38:31;;;;;;;1.50;1.00;;;14.80;98.20;;;;;;4954554;28;20479;-81
2023/09/04 04:40:58;;;;;;;1.50;0.97;;;14.80;98.20;;;;;;4944605;28;20490;-80
2023/09/04 04:43:24;;;;;;;1.57;1.10;;;14.80;98.20;;;;;;4968458;28;20537;-81
2023/09/04 04:45:55;;;;;;;1.50;1.00;;;14.80;98.20;;;;;;4943154;28;20876;-80
2023/09/04 04:48:22;;;;;;;1.50;1.00;;;14.70;98.20;;;;;;4975731;28;20849;-82
2023/09/04 04:50:48;;;;;;;1.50;1.00;;;14.70;98.20;;;;;;4967829;28;20501;-82
2023/09/04 04:53:15;;;;;;;1.50;1.00;;;14.70;98.20;;;;;;4992879;28;20472;-80
2023/09/04 04:55:42;;;;;;;1.50;1.00;;;14.70;98.20;;;;;;4984628;28;20529;-80
2023/09/04 04:58:09;;;;;;;1.53;1.00;;;14.70;98.20;;;;;;4982076;28;20489;-81
2023/09/04 05:00:36;;;;;;;1.50;1.10;;;14.60;98.20;;;;;;4978470;28;20485;-82
2023/09/04 05:03:05;;;;;;;1.50;1.00;;;14.60;98.20;;;;;;4965718;28;20489;-82
2023/09/04 05:05:32;;;;;;;1.50;0.97;;;14.60;98.20;;;;;;4978639;28;20565;-81
2023/09/04 05:07:58;;;;;;;1.60;1.10;;;14.60;98.20;;;;;;4970861;28;20850;-82
2023/09/04 05:10:25;;;;;;;1.50;1.00;;;14.70;98.20;;;;;;4980896;28;20484;-82
2023/09/04 05:12:52;;;;;;;1.50;1.10;;;14.70;98.20;;;;;;4965329;28;20492;-81
2023/09/04 05:15:19;;;;;;;1.50;1.00;;;14.70;98.20;;;;;;4973574;28;20530;-80
2023/09/04 05:17:45;;;;;;;1.50;1.00;;;14.70;98.20;;;;;;4981819;28;20612;-81
2023/09/04 05:20:14;;;;;;;1.50;1.00;;;14.70;98.20;;;;;;4977226;28;20572;-79
2023/09/04 05:22:41;;;;;;;1.50;1.00;;;14.70;98.20;;;;;;4963669;28;20481;-80
2023/09/04 05:25:11;;;;;;;1.50;1.00;;;14.70;98.20;;;;;;4982011;28;20561;-80
2023/09/04 05:27:38;;;;;;;1.50;1.00;;;14.70;98.20;;;;;;4967863;28;20481;-82
2023/09/04 05:30:05;;;;;;;1.53;1.10;;;14.70;98.20;;;;;;4980957;28;21106;-81
2023/09/04 05:32:32;;;;;;;1.50;1.00;;;14.80;98.20;;;;;;4962877;28;20925;-82
2023/09/04 05:34:59;;;;;;;1.50;1.00;;;14.80;98.20;;;;;;4980589;28;20466;-82
2023/09/04 05:37:27;;;;;;;1.60;1.10;;;14.80;98.20;;;;;;4967185;28;20473;-82
2023/09/04 05:39:55;;;;;;;1.60;1.20;;;14.80;98.20;;;;;;4980234;28;20481;-81
2023/09/04 05:42:22;;;;;;;1.50;1.10;;;14.90;98.20;;;;;;4976300;28;21092;-82
2023/09/04 05:44:48;;;;;;;1.50;1.00;;;14.90;98.20;;;;;;4977949;28;21095;-81
2023/09/04 05:47:15;;;;;;;1.50;1.00;;;15.00;98.20;;;;;;4967821;28;20489;-82
2023/09/04 05:49:42;;;;;;;1.50;1.00;;;15.10;98.20;;;;;;4975908;28;20471;-82
2023/09/04 05:52:09;;;;;;;1.50;1.00;;;15.20;98.20;;;;;;4961836;28;20497;-81
2023/09/04 05:54:37;;;;;;;1.50;1.00;;;15.30;98.20;;;;;;4980818;28;20525;-80
2023/09/04 05:57:04;;;;;;;1.50;1.00;;;15.40;98.20;;;;;;4966428;28;20924;-79
2023/09/04 05:59:31;;;;;;;1.50;1.00;;;15.50;98.20;;;;;;4978534;28;20539;-81
2023/09/04 06:01:58;;;;;;;1.50;1.10;;;15.60;98.20;;;;;;4967398;28;20504;-82
2023/09/04 06:04:25;;;;;;;1.50;1.00;;;15.70;98.20;;;;;;4979243;28;20560;-79
2023/09/04 06:06:52;;;;;;;1.50;1.00;;;15.80;98.20;;;;;;4968776;28;20550;-81
2023/09/04 06:09:19;;;;;;;1.57;1.10;;;15.90;98.20;;;;;;4975504;28;20485;-81
2023/09/04 06:11:47;;;;;;;1.50;1.00;;;16.10;98.20;;;;;;4962534;28;20492;-80
2023/09/04 06:14:14;;;;;;;1.50;1.00;;;16.20;98.20;;;;;;4971747;28;20466;-81
2023/09/04 06:16:41;;;;;;;1.53;1.10;;;16.30;98.20;;;;;;4965193;28;20848;-80
2023/09/04 06:19:08;;;;;;;1.60;1.10;;;16.40;98.20;;;;;;4974481;28;20475;-82
2023/09/04 06:21:35;;;;;;;1.50;1.00;;;16.50;98.20;;;;;;4969183;28;20482;-81
2023/09/04 06:24:02;;;;;;;1.57;1.00;;;16.60;98.20;;;;;;4980154;28;20994;-81
2023/09/04 06:26:29;;;;;;;1.50;0.90;;;16.70;98.20;;;;;;4968277;28;20524;-80
2023/09/04 06:28:58;;;;;;;1.50;0.90;;;16.80;98.20;;;;;;4977953;28;20480;-81
2023/09/04 06:31:24;;;;;;;1.57;1.00;;;17.00;98.20;;;;;;4970084;28;20486;-81
2023/09/04 06:33:51;;;;;;;1.70;1.50;;;17.10;98.20;;;;;;4976877;28;20462;-81
2023/09/04 06:36:18;;;;;;;1.57;1.00;;;17.20;98.20;;;;;;4974642;28;20487;-80
2023/09/04 06:38:45;;;;;;;1.50;1.00;;;17.30;98.20;;;;;;4993096;28;20505;-81
2023/09/04 06:41:12;;;;;;;1.50;0.90;;;17.50;98.20;;;;;;4964910;28;20496;-81
2023/09/04 06:43:39;;;;;;;1.53;1.00;;;17.60;98.20;;;;;;4965028;28;20467;-82
2023/09/04 06:46:11;;;;;;;1.57;1.00;;;17.70;98.20;;;;;;4943864;28;20495;-77
2023/09/04 06:48:38;;;;;;;1.50;0.90;;;17.80;98.20;;;;;;4965719;28;20498;-80
2023/09/04 06:51:05;;;;;;;1.53;1.00;;;18.00;98.20;;;;;;4948541;28;20487;-78
2023/09/04 06:53:32;;;;;;;1.50;1.00;;;18.10;98.20;;;;;;4992836;28;20465;-81
2023/09/04 06:55:58;;;;;;;1.57;1.00;;;18.10;98.20;;;;;;4972203;28;20504;-78
2023/09/04 06:58:26;;;;;;;1.50;0.90;;;18.10;98.20;;;;;;4995501;28;20471;-82
2023/09/04 07:00:54;;;;;;;1.57;1.00;;;18.30;98.20;;;;;;4965072;28;20486;-81
2023/09/04 07:03:22;;;;;;;1.53;0.90;;;18.40;98.20;;;;;;4990397;28;20466;-81
2023/09/04 07:05:50;;;;;;;1.50;0.90;;;18.60;98.20;;;;;;4968305;28;20577;-79
2023/09/04 07:08:17;;;;;;;1.50;0.97;;;18.70;98.20;;;;;;4992788;28;20716;-81
2023/09/04 07:10:44;;;;;;;1.60;1.10;;;18.80;98.20;;;;;;4981004;28;20481;-81
2023/09/04 07:13:10;;;;;;;1.50;0.90;;;18.90;98.20;;;;;;4983735;28;20500;-80
2023/09/04 07:15:37;;;;;;;1.50;0.90;;;18.90;98.20;;;;;;4981993;28;20678;-81
2023/09/04 07:18:05;;;;;;;1.50;1.00;;;19.00;98.20;;;;;;4960993;28;20492;-80
2023/09/04 07:20:33;;;;;;;1.50;0.90;;;19.10;98.20;;;;;;4953206;28;20494;-82
2023/09/04 07:23:00;;;;;;;1.53;0.90;;;19.20;98.20;;;;;;4959795;28;20561;-82
2023/09/04 07:25:27;;;;;;;1.50;0.90;;;19.30;98.20;;;;;;4957372;28;20483;-81
2023/09/04 07:27:55;;;;;;;1.50;1.00;;;19.40;98.20;;;;;;4964833;28;20481;-82
2023/09/04 07:30:23;;;;;;;1.53;1.00;;;19.60;98.20;;;;;;4957165;28;20486;-81
2023/09/04 07:32:49;;;;;;;1.50;0.97;;;19.80;98.20;;;;;;4959171;28;20482;-84
2023/09/04 07:35:16;;;;;;;1.50;1.00;;;19.90;98.20;;;;;;4962525;28;20465;-82
2023/09/04 07:37:46;;;;;;;1.50;0.90;;;20.00;98.20;;;;;;4958761;28;20568;-80
2023/09/04 07:40:12;;;;;;;1.50;0.90;;;20.20;98.20;;;;;;4955508;28;20533;-84
2023/09/04 07:42:41;;;;;;;1.53;1.10;;;20.40;98.20;;;;;;4962250;28;20573;-84
2023/09/04 07:45:09;;;;;;;1.50;0.90;;;20.50;98.20;;;;;;4956506;28;20495;-81
2023/09/04 07:47:36;;;;;;;1.50;0.90;;;20.50;98.20;;;;;;4962598;28;20477;-81
2023/09/04 07:50:03;;;;;;;1.60;1.10;;;20.60;98.20;;;;;;4958981;28;20495;-83
2023/09/04 07:52:30;;;;;;;1.50;0.90;;;20.70;98.20;;;;;;4958477;28;20484;-82
2023/09/04 07:54:58;;;;;;;1.50;0.90;;;20.80;98.20;;;;;;4960987;28;20476;-80
2023/09/04 07:57:40;;;;;;;1.50;0.90;;;20.90;98.20;;;;;;4964516;28;20490;-80
2023/09/04 08:00:08;;;;;;;1.50;0.90;;;21.00;98.20;;;;;;4960885;28;20487;-78
2023/09/04 08:02:35;;;;;;;1.50;0.90;;;21.10;98.20;;;;;;4967327;28;20642;-83
2023/09/04 08:05:13;;;;;;;1.50;0.90;;;21.20;98.20;;;;;;4963146;28;20486;-82
2023/09/04 08:07:40;;;;;;;1.50;0.90;;;21.40;98.20;;;;;;4965873;28;20469;-80
2023/09/04 08:10:09;;;;;;;1.50;0.90;;;21.40;98.20;;;;;;4967146;28;20490;-81
2023/09/04 08:12:36;;;;;;;1.50;0.90;;;21.50;98.20;;;;;;4958903;28;20488;-79
2023/09/04 08:15:03;;;;;;;1.50;0.90;;;21.70;98.20;;;;;;4964360;28;20474;-80
2023/09/04 08:17:32;;;;;;;1.50;0.90;;;21.90;98.20;;;;;;4984864;28;20484;-81
2023/09/04 08:20:00;;;;;;;1.50;0.90;;;22.10;98.20;;;;;;4964860;28;20585;-82
2023/09/04 08:22:27;;;;;;;1.50;0.90;;;22.10;98.20;;;;;;4981760;28;20469;-81
2023/09/04 08:24:55;;;;;;;1.50;0.90;;;22.20;98.20;;;;;;4967360;28;20499;-80
2023/09/04 08:27:23;;;;;;;1.50;0.90;;;22.20;98.20;;;;;;4980270;28;20512;-82
2023/09/04 08:29:51;;;;;;;1.50;0.90;;;22.30;98.20;;;;;;4969284;28;20479;-79
2023/09/04 08:32:18;;;;;;;1.50;0.90;;;22.40;97.60;;;;;;4973704;28;20488;-80
2023/09/04 08:34:45;;;;;;;1.60;1.37;;;22.50;98.20;;;;;;4967173;28;20507;-80
2023/09/04 08:37:12;;;;;;;1.50;0.90;;;22.70;98.00;;;;;;4970903;28;20548;-80
2023/09/04 08:39:39;;;;;;;1.50;0.90;;;22.80;96.80;;;;;;4970636;28;20462;-81
2023/09/04 08:42:07;;;;;;;1.50;0.90;;;22.90;97.70;;;;;;4970162;28;20483;-79
2023/09/04 08:44:36;;;;;;;1.50;0.90;;;23.00;97.20;;;;;;4975600;28;20512;-80
2023/09/04 08:47:06;;;;;;;1.50;0.90;;;23.00;96.70;;;;;;4974553;28;20942;-80
2023/09/04 08:52:07;;;;;;;1.50;0.90;;;23.00;96.40;;;;;;4932573;28;20479;-79
2023/09/04 08:54:34;;;;;;;1.50;0.90;;;23.10;96.80;;;;;;4944635;28;20973;-82
2023/09/04 08:57:01;;;;;;;1.50;0.90;;;23.10;96.30;;;;;;4939128;28;20489;-80
2023/09/04 08:59:29;;;;;;;1.50;0.90;;;23.30;96.60;;;;;;4943764;28;20943;-79
2023/09/04 09:02:00;;;;;;;1.47;0.90;;;23.40;95.40;;;;;;4938274;28;20558;-79
2023/09/04 09:04:28;;;;;;;1.50;0.90;;;23.40;96.10;;;;;;4943581;28;20455;-79
2023/09/04 09:06:57;;;;;;;1.47;0.90;;;23.50;95.50;;;;;;4932146;28;20499;-80
2023/09/04 09:09:24;;;;;;;1.40;0.90;;;23.60;95.50;;;;;;4940988;28;20478;-80
2023/09/04 09:11:54;;;;;;;1.50;0.90;;;23.70;94.90;;;;;;4933501;28;20482;-79
2023/09/04 09:14:26;;;;;;;1.50;0.90;;;23.80;93.40;;;;;;4942453;28;20571;-80
2023/09/04 09:17:04;;;;;;;1.50;0.90;;;23.90;95.40;;;;;;4939055;28;20473;-80
2023/09/04 09:19:33;;;;;;;1.50;1.10;;;24.00;94.20;;;;;;4943498;28;20531;-81
2023/09/04 09:22:12;;;;;;;1.47;0.87;;;24.10;93.50;;;;;;4934571;28;20490;-81
2023/09/04 09:24:53;;;;;;;1.50;0.90;;;24.10;93.30;;;;;;4944165;28;20470;-79
2023/09/04 09:27:22;;;;;;;1.50;0.90;;;24.20;93.20;;;;;;4946217;28;20522;-81
2023/09/04 09:29:51;;;;;;;1.47;0.90;;;24.30;92.70;;;;;;4949550;28;20490;-78
2023/09/04 09:32:36;;;;;;;1.47;0.80;;;24.30;92.50;;;;;;4935930;28;20505;-80
2023/09/04 09:35:03;;;;;;;1.50;0.90;;;24.50;92.40;;;;;;4942716;29;20538;-79
2023/09/04 09:37:34;;;;;;;1.47;0.90;;;24.60;92.30;;;;;;4952293;28;20529;-80
2023/09/04 09:40:01;;;;;;;1.50;0.90;;;24.70;92.40;;;;;;4946590;28;20490;-80
2023/09/04 09:42:29;;;;;;;1.50;0.90;;;24.90;91.90;;;;;;4946463;28;20482;-80
2023/09/04 09:44:57;;;;;;;1.50;0.80;;;25.00;91.30;;;;;;4948489;28;20472;-80
2023/09/04 09:47:24;;;;;;;1.60;1.10;;;25.00;91.10;;;;;;4948052;28;20550;-81
2023/09/04 09:49:55;;;;;;;1.50;1.00;;;25.10;91.40;;;;;;4950597;28;20491;-81
2023/09/04 09:52:23;;;;;;;1.50;1.20;;;25.20;89.50;;;;;;4950139;28;20489;-79
2023/09/04 09:54:50;;;;;;;1.50;1.00;;;25.20;89.80;;;;;;4949516;28;20460;-78
2023/09/04 09:57:18;;;;;;;1.50;0.90;;;25.20;91.30;;;;;;4942910;28;20478;-80
2023/09/04 09:59:47;;;;;;;1.50;0.97;;;25.20;90.40;;;;;;4948803;28;20513;-81
2023/09/04 10:02:19;;;;;;;1.50;0.80;;;25.40;89.20;;;;;;4942647;28;21001;-80
2023/09/04 10:04:46;;;;;;;1.50;0.90;;;25.50;89.80;;;;;;4938449;28;20464;-80
2023/09/04 10:07:21;;;;;;;1.50;1.10;;;25.60;88.90;;;;;;4941421;28;20501;-81
2023/09/04 10:09:59;;;;;;;1.50;0.90;;;25.60;88.70;;;;;;4943158;28;20586;-79
2023/09/04 10:12:33;;;;;;;1.50;0.90;;;25.70;88.90;;;;;;4947097;28;20998;-78
2023/09/04 10:15:01;;;;;;;1.50;0.90;;;25.80;88.00;;;;;;4951350;28;20460;-80
2023/09/04 10:17:35;;;;;;;1.50;0.90;;;26.00;88.30;;;;;;4942765;28;20486;-79
2023/09/04 10:20:06;;;;;;;1.50;0.90;;;26.10;87.70;;;;;;4944007;28;20506;-79
2023/09/04 10:22:55;;;;;;;1.50;0.90;;;26.30;88.10;;;;;;4946430;28;20500;-79
2023/09/04 10:25:31;;;;;;;1.47;0.87;;;26.50;86.10;;;;;;4941767;29;20486;-82
2023/09/04 10:28:05;;;;;;;1.43;0.80;;;26.50;84.30;;;;;;4940039;28;20478;-80
2023/09/04 10:30:42;;;;;;;1.47;0.80;;;26.50;86.50;;;;;;4942616;29;20487;-81
2023/09/04 10:33:10;;;;;;;1.50;0.80;;;26.60;85.70;;;;;;4934005;28;20490;-82
2023/09/04 10:35:40;;;;;;;1.50;0.90;;;26.70;84.90;;;;;;4937504;29;20466;-82
2023/09/04 10:38:13;;;;;;;1.50;0.80;;;26.80;84.70;;;;;;4947313;28;20483;-83
2023/09/04 10:41:05;;;;;;;1.50;0.80;;;26.90;86.10;;;;;;4944617;29;20499;-84
2023/09/04 10:44:00;;;;;;;1.50;0.80;;;26.90;84.00;;;;;;4932754;29;20479;-82
2023/09/04 10:46:28;;;;;;;1.50;1.00;;;26.80;84.90;;;;;;4936421;28;20491;-82
2023/09/04 10:49:35;;;;;;;1.50;0.80;;;27.00;85.50;;;;;;4943302;28;20469;-80
2023/09/04 10:52:06;;;;;;;1.50;0.80;;;27.30;85.10;;;;;;4904315;28;20558;-82
2023/09/04 10:54:35;;;;;;;1.50;0.93;;;27.50;84.40;;;;;;4942573;28;20471;-81
2023/09/04 10:57:07;;;;;;;1.50;1.10;;;27.70;83.70;;;;;;4945461;28;20500;-82
2023/09/04 11:00:00;;;;;;;1.40;0.80;;;27.70;83.60;;;;;;4958603;28;20604;-82
2023/09/04 11:02:27;;;;;;;1.43;0.80;;;27.90;83.10;;;;;;4952113;28;20537;-81
2023/09/04 11:04:57;;;;;;;1.43;0.80;;;28.00;82.90;;;;;;4955387;28;20470;-81
2023/09/04 11:07:31;;;;;;;1.50;0.90;;;28.00;82.20;;;;;;4952272;28;20497;-82
2023/09/04 11:10:34;;;;;;;1.50;0.80;;;28.10;82.50;;;;;;4957089;28;20489;-80
2023/09/04 11:13:01;;;;;;;1.47;0.80;;;28.10;82.50;;;;;;4949034;28;20470;-81
2023/09/04 11:15:29;;;;;;;1.43;0.80;;;28.20;81.40;;;;;;4956728;28;20529;-80
2023/09/04 11:17:59;;;;;;;1.47;0.80;;;28.40;80.70;;;;;;4960428;28;21054;-81
2023/09/04 11:20:27;;;;;;;1.50;0.80;;;28.60;78.50;;;;;;4958454;28;20504;-81
2023/09/04 11:22:55;;;;;;;1.50;0.80;;;28.60;78.40;;;;;;4951820;28;20521;-79
2023/09/04 11:25:23;;;;;;;1.47;0.80;;;28.70;78.80;;;;;;4958530;28;20463;-81
2023/09/04 11:27:51;;;;;;;1.50;0.90;;;28.60;79.00;;;;;;4963326;28;20485;-81
2023/09/04 11:30:18;;;;;;;1.50;0.80;;;28.70;78.40;;;;;;4959736;28;20890;-79
2023/09/04 11:32:47;;;;;;;1.50;0.80;;;28.70;79.80;;;;;;4964177;28;20492;-80
2023/09/04 11:35:15;;;;;;;1.47;0.80;;;28.80;80.40;;;;;;4956201;28;20511;-79
2023/09/04 11:37:43;;;;;;;1.47;0.80;;;28.90;80.60;;;;;;4969466;28;20487;-80
2023/09/04 11:40:11;;;;;;;1.47;0.80;;;29.00;78.70;;;;;;4959730;28;20496;-79
2023/09/04 11:42:38;;;;;;;1.50;0.93;;;29.10;78.20;;;;;;4966948;28;20621;-80
2023/09/04 11:45:07;;;;;;;1.47;0.80;;;29.10;78.80;;;;;;4957174;28;20968;-80
2023/09/04 11:47:34;;;;;;;1.43;0.83;;;29.10;80.30;;;;;;4957834;28;20482;-81
2023/09/04 11:50:04;;;;;;;1.50;0.80;;;29.10;79.20;;;;;;4956779;28;20592;-84
2023/09/04 11:52:33;;;;;;;1.50;0.80;;;29.20;78.30;;;;;;4951949;28;21184;-82
2023/09/04 11:55:00;;;;;;;1.47;0.80;;;29.10;76.00;;;;;;4959082;28;20544;-81
2023/09/04 11:57:27;;;;;;;1.47;0.80;;;29.20;78.00;;;;;;4951923;28;21035;-82
2023/09/04 11:59:55;;;;;;;1.47;0.80;;;29.40;77.50;;;;;;4959551;28;20490;-79
2023/09/04 12:02:23;;;;;;;1.50;0.80;;;29.60;76.90;;;;;;4966472;28;20497;-82
2023/09/04 12:04:52;;;;;;;1.50;0.80;;;29.70;76.00;;;;;;4960598;28;20462;-79
2023/09/04 12:07:19;;;;;;;1.47;0.80;;;29.60;75.90;;;;;;4956594;28;20496;-80
2023/09/04 12:09:46;;;;;;;1.47;0.80;;;29.60;76.10;;;;;;4956079;28;20469;-81
2023/09/04 12:12:15;;;;;;;1.47;0.80;;;29.40;75.30;;;;;;4955525;28;21063;-79
2023/09/04 12:14:45;;;;;;;1.43;0.80;;;29.30;77.60;;;;;;4966039;28;20502;-80
2023/09/04 12:17:12;;;;;;;1.40;0.80;;;29.40;77.10;;;;;;4954251;28;20640;-79
2023/09/04 12:19:42;;;;;;;1.47;0.80;;;29.60;77.40;;;;;;4961405;28;20525;-79
2023/09/04 12:22:13;;;;;;;1.43;0.80;;;29.60;74.90;;;;;;4945598;28;20485;-78
2023/09/04 12:24:40;;;;;;;1.47;0.83;;;29.70;75.90;;;;;;4961406;28;20473;-82
2023/09/04 12:27:08;;;;;;;1.47;0.80;;;29.60;73.00;;;;;;4955014;28;20486;-80
2023/09/04 12:29:35;;;;;;;1.40;0.80;;;29.70;75.40;;;;;;4968512;28;20461;-82
2023/09/04 12:32:03;;;;;;;1.47;0.80;;;29.70;74.80;;;;;;4952371;28;20477;-81
2023/09/04 12:34:32;;;;;;;1.50;0.90;;;29.70;74.30;;;;;;4960831;28;20783;-80
2023/09/04 12:37:00;;;;;;;1.60;1.10;;;29.70;76.10;;;;;;4947348;28;20481;-81
2023/09/04 12:39:27;;;;;;;1.43;0.80;;;29.90;75.20;;;;;;4955548;28;20472;-82
2023/09/04 12:44:40;;;;;;;1.47;0.80;;;29.90;74.30;;;;;;4968728;28;20468;-82
2023/09/04 12:47:07;;;;;;;1.43;0.80;;;29.90;73.30;;;;;;4961032;28;20488;-81
2023/09/04 12:49:34;;;;;;;1.40;0.80;;;29.70;73.00;;;;;;4958145;28;20557;-82
2023/09/04 12:52:02;;;;;;;1.50;0.93;;;29.80;75.10;;;;;;4946142;28;21250;-83
2023/09/04 12:54:29;;;;;;;1.43;0.80;;;29.90;72.70;;;;;;4960353;28;20471;-82
2023/09/04 12:56:56;;;;;;;1.50;0.80;;;29.90;72.60;;;;;;4954588;28;20551;-83
2023/09/04 12:59:23;;;;;;;1.43;0.80;;;29.80;73.00;;;;;;4960391;28;20608;-81
2023/09/04 13:01:50;;;;;;;1.50;0.80;;;29.70;73.50;;;;;;4963896;28;20543;-80
2023/09/04 13:04:18;;;;;;;1.47;0.90;;;29.80;72.00;;;;;;4966360;28;20665;-80